Time;durP1;ratioP1;P1;durP2;ratioP2;P2;SDS_P1;SDS_P2;PMS_P1;PMS_P2;Temp;Humidity;BMP_temperature;BMP_pressure;BME280_temperature;BME280_humidity;BME280_pressure;Samples;Min_cycle;Max_cycle;Signal;HPM_P1;HPM_P2
2022/04/06 04:18:32;;;;;;;;;1.75;1.75;;;;;17.00;49.36;100669.38;5073253;27;45649;-74
2022/04/06 04:21:43;;;;;;;;;1.00;1.00;;;;;17.15;49.37;100663.75;5065253;28;45557;-73
2022/04/06 04:23:43;;;;;;;;;3.25;2.50;;;;;17.41;49.29;100669.63;5065593;28;45642;-73
2022/04/06 04:26:08;;;;;;;;;1.00;1.00;;;;;17.69;48.96;100648.47;5058693;27;45446;-73
2022/04/06 04:28:34;;;;;;;;;2.00;2.00;;;;;18.00;49.22;100644.97;5058354;28;45312;-73
2022/04/06 04:30:59;;;;;;;;;0.50;0.50;;;;;18.33;48.99;100650.22;5066005;28;45507;-73
2022/04/06 04:33:25;;;;;;;;;3.00;2.00;;;;;18.65;48.60;100650.06;5066659;28;45316;-73
2022/04/06 04:35:50;;;;;;;;;1.00;1.00;;;;;18.99;48.48;100642.56;5068908;28;45448;-73
2022/04/06 04:38:15;;;;;;;;;2.00;1.75;;;;;19.32;47.63;100641.34;5057642;28;45320;-74
2022/04/06 04:40:41;;;;;;;;;2.00;2.00;;;;;19.62;47.57;100625.16;5065291;28;45732;-74
2022/04/06 04:43:06;;;;;;;;;1.67;1.67;;;;;19.94;46.74;100625.78;5053585;28;45482;-73
2022/04/06 04:45:31;;;;;;;;;1.67;1.67;;;;;20.22;46.96;100628.50;5068211;28;45604;-73
2022/04/06 04:47:57;;;;;;;;;1.00;1.00;;;;;20.44;46.54;100627.25;5053493;28;45289;-73
2022/04/06 04:50:23;;;;;;;;;1.00;1.00;;;;;20.73;46.03;100625.41;5065376;28;45396;-73
2022/04/06 04:52:48;;;;;;;;;0.67;0.67;;;;;20.93;45.76;100613.47;5067804;28;50297;-73
2022/04/06 04:55:14;;;;;;;;;1.00;1.00;;;;;21.17;45.33;100619.28;5068365;28;45568;-73
2022/04/06 04:57:39;;;;;;;;;0.67;0.67;;;;;21.36;44.83;100623.63;5069073;27;45998;-73
2022/04/06 05:00:08;;;;;;;;;2.67;1.67;;;;;21.54;44.38;100626.28;5069641;27;45672;-74
2022/04/06 05:02:33;;;;;;;;;1.67;1.67;;;;;21.71;44.79;100627.25;5066889;28;46340;-75
2022/04/06 05:04:59;;;;;;;;;1.33;1.33;;;;;21.88;43.89;100630.09;5067227;27;45457;-73
2022/04/06 05:07:24;;;;;;;;;1.00;1.00;;;;;22.03;44.30;100619.50;5063269;27;46083;-74
2022/04/06 05:09:50;;;;;;;;;2.33;1.00;;;;;22.17;43.89;100615.38;5058837;28;45439;-72
2022/04/06 05:12:15;;;;;;;;;2.00;2.00;;;;;22.29;43.42;100610.50;5065336;28;45461;-72
2022/04/06 05:14:41;;;;;;;;;1.00;1.00;;;;;22.38;43.62;100609.53;5071416;27;45605;-73
2022/04/06 05:17:06;;;;;;;;;1.33;1.33;;;;;22.50;43.38;100606.50;5063309;27;45527;-72
2022/04/06 05:19:32;;;;;;;;;2.00;1.67;;;;;22.59;43.11;100610.97;5057704;27;45671;-73
2022/04/06 05:21:59;;;;;;;;;2.67;1.00;;;;;22.66;42.64;100611.16;5057794;27;45566;-72
2022/04/06 05:24:24;;;;;;;;;1.00;1.00;;;;;22.71;42.95;100611.50;5059973;27;45478;-74
2022/04/06 05:26:50;;;;;;;;;0.33;0.33;;;;;22.79;42.83;100607.09;5060934;28;45597;-74
2022/04/06 05:29:15;;;;;;;;;1.00;1.00;;;;;22.89;42.59;100619.47;5048190;28;45469;-75
2022/04/06 05:31:41;;;;;;;;;1.33;1.33;;;;;22.95;42.08;100612.53;5047180;28;52307;-75
2022/04/06 05:34:06;;;;;;;;;1.00;1.00;;;;;23.02;42.34;100615.41;5054073;28;45431;-75
2022/04/06 05:36:31;;;;;;;;;1.67;1.67;;;;;23.06;42.59;100619.50;5050365;28;46963;-74
2022/04/06 05:38:57;;;;;;;;;2.33;1.33;;;;;23.09;42.25;100613.72;5049520;28;45565;-75
2022/04/06 05:41:23;;;;;;;;;1.00;1.00;;;;;23.15;41.92;100620.31;5053676;28;45477;-75
2022/04/06 05:43:48;;;;;;;;;1.00;1.00;;;;;23.17;41.07;100607.47;5042354;28;45519;-73
2022/04/06 05:46:13;;;;;;;;;1.00;1.00;;;;;23.16;40.83;100612.03;5049651;28;45481;-74
2022/04/06 05:48:39;;;;;;;;;1.00;1.00;;;;;23.16;40.71;100617.47;5041868;28;45412;-74
2022/04/06 05:51:05;;;;;;;;;1.00;1.00;;;;;23.16;40.83;100611.19;5048579;28;45469;-73
2022/04/06 05:53:30;;;;;;;;;0.00;0.00;;;;;23.19;40.34;100610.00;5050899;28;45545;-73
2022/04/06 05:55:56;;;;;;;;;1.00;1.00;;;;;23.19;40.47;100610.00;5054520;28;45639;-74
2022/04/06 05:58:21;;;;;;;;;1.00;1.00;;;;;23.15;40.28;100604.94;5050443;27;46244;-73
2022/04/06 06:00:46;;;;;;;;;3.33;2.00;;;;;23.18;40.12;100617.28;5046784;28;45552;-73
2022/04/06 06:03:12;;;;;;;;;1.00;1.00;;;;;23.19;40.28;100618.13;5051974;28;45589;-74
2022/04/06 06:05:38;;;;;;;;;2.33;2.33;;;;;23.18;39.77;100617.28;5050547;28;45834;-75
2022/04/06 06:08:03;;;;;;;;;1.00;1.00;;;;;23.20;39.58;100614.38;5049177;28;45681;-74
2022/04/06 06:10:29;;;;;;;;;4.33;3.00;;;;;23.19;39.95;100615.41;5046239;28;45720;-74
2022/04/06 06:12:54;;;;;;;;;2.33;2.00;;;;;23.20;39.54;100620.66;5050110;28;45803;-74
2022/04/06 06:15:19;;;;;;;;;3.00;1.00;;;;;23.18;39.55;100606.47;5050125;28;46215;-73
2022/04/06 06:17:45;;;;;;;;;3.00;1.67;;;;;23.16;39.37;100611.19;5043926;28;45306;-72
2022/04/06 06:20:10;;;;;;;;;1.00;1.00;;;;;23.13;39.26;100608.84;5044266;28;45498;-73
2022/04/06 06:22:36;;;;;;;;;2.33;1.00;;;;;23.03;39.61;100604.44;5044720;28;45573;-74
2022/04/06 06:25:02;;;;;;;;;2.33;2.00;;;;;23.05;39.67;100603.41;5045465;28;46178;-74
2022/04/06 06:27:27;;;;;;;;;3.00;1.33;;;;;23.07;39.31;100606.78;5045053;28;46333;-74
2022/04/06 06:29:52;;;;;;;;;2.67;1.67;;;;;23.07;39.43;100601.38;5044478;28;45525;-73
2022/04/06 06:32:18;;;;;;;;;2.33;1.00;;;;;23.09;39.16;100602.88;5039190;28;45493;-74
2022/04/06 06:34:43;;;;;;;;;3.00;2.00;;;;;23.05;38.79;100601.53;5034128;28;47928;-73
2022/04/06 06:37:10;;;;;;;;;3.00;1.67;;;;;23.05;39.44;100598.81;5036433;28;46029;-74
2022/04/06 06:39:36;;;;;;;;;4.00;2.00;;;;;23.07;39.15;100598.66;5035411;28;45851;-74
2022/04/06 06:42:04;;;;;;;;;2.00;2.00;;;;;23.10;38.93;100606.47;5036877;28;45608;-74
2022/04/06 06:44:54;;;;;;;;;2.00;2.00;;;;;23.12;38.99;100607.97;5036608;28;46311;-74
2022/04/06 06:47:24;;;;;;;;;1.00;1.00;;;;;23.13;38.54;100601.53;5035107;28;46265;-74
2022/04/06 06:49:49;;;;;;;;;6.00;3.00;;;;;23.13;38.54;100596.13;5046257;28;45835;-74
2022/04/06 06:52:14;;;;;;;;;1.00;1.00;;;;;23.13;39.00;100588.00;5043631;28;47109;-74
2022/04/06 06:54:40;;;;;;;;;2.00;2.00;;;;;23.12;39.04;100588.16;5045455;28;45621;-74
2022/04/06 06:57:05;;;;;;;;;1.67;1.67;;;;;23.15;38.89;100587.84;5042555;28;45533;-74
2022/04/06 06:59:31;;;;;;;;;1.67;1.67;;;;;23.16;39.15;100586.81;5045959;28;45595;-74
2022/04/06 07:01:56;;;;;;;;;2.00;2.00;;;;;23.14;38.52;100584.28;5049319;28;45416;-74
2022/04/06 07:04:22;;;;;;;;;2.00;1.00;;;;;23.19;38.93;100585.63;5046741;28;51407;-74
2022/04/06 07:06:49;;;;;;;;;1.33;1.33;;;;;23.16;38.92;100576.84;5044115;28;45381;-74
2022/04/06 07:09:15;;;;;;;;;1.00;1.00;;;;;23.20;38.62;100568.38;5049521;28;45701;-74
2022/04/06 07:11:40;;;;;;;;;1.00;1.00;;;;;23.19;38.29;100577.50;5041738;28;45448;-74
2022/04/06 07:14:06;;;;;;;;;2.67;1.00;;;;;23.22;38.50;100571.75;5038644;28;46915;-73
2022/04/06 07:16:31;;;;;;;;;2.00;2.00;;;;;23.21;38.58;100572.78;5039543;28;58660;-73
2022/04/06 07:18:56;;;;;;;;;1.67;1.33;;;;;23.25;38.31;100572.25;5063140;28;46532;-73
2022/04/06 07:21:22;;;;;;;;;1.67;1.00;;;;;23.26;38.39;100570.41;5050162;28;45585;-73
2022/04/06 07:23:47;;;;;;;;;2.33;1.00;;;;;23.26;38.34;100567.72;5050524;28;49637;-72
2022/04/06 07:26:16;;;;;;;;;2.00;2.00;;;;;23.26;38.72;100567.72;5050765;27;45452;-71
2022/04/06 07:28:42;;;;;;;;;2.67;2.00;;;;;23.27;39.16;100570.25;5049283;28;45546;-71
2022/04/06 07:31:07;;;;;;;;;2.33;1.00;;;;;23.28;38.96;100569.22;5042048;28;45510;-72
2022/04/06 07:33:36;;;;;;;;;3.00;1.33;;;;;23.32;39.38;100560.72;5048408;28;46126;-72
2022/04/06 07:36:02;;;;;;;;;2.00;1.33;;;;;23.36;39.05;100564.81;5051730;28;45416;-72
2022/04/06 07:38:27;;;;;;;;;1.00;1.00;;;;;23.37;39.19;100564.66;5052907;28;45782;-72
2022/04/06 07:40:52;;;;;;;;;0.67;0.67;;;;;23.39;39.43;100564.50;5048976;28;45563;-72
2022/04/06 07:43:18;;;;;;;;;1.00;1.00;;;;;23.41;39.50;100562.44;5051150;28;45573;-72
2022/04/06 07:45:43;;;;;;;;;3.00;2.00;;;;;23.41;39.45;100562.44;5049017;28;45445;-72
2022/04/06 07:48:09;;;;;;;;;2.00;1.00;;;;;23.45;39.67;100561.09;5051445;28;45708;-72
2022/04/06 07:50:35;;;;;;;;;1.67;1.67;;;;;23.48;39.29;100565.31;5048956;28;45424;-72
2022/04/06 07:53:00;;;;;;;;;2.33;2.00;;;;;23.50;39.40;100561.41;5052206;28;46107;-73
2022/04/06 07:55:26;;;;;;;;;1.67;1.67;;;;;23.50;39.52;100556.00;5047856;28;45540;-72
2022/04/06 07:57:51;;;;;;;;;1.33;1.33;;;;;23.55;39.99;100559.03;5052649;28;45464;-72
2022/04/06 08:00:17;;;;;;;;;1.00;1.00;;;;;23.58;39.70;100554.31;5044631;28;45554;-72
2022/04/06 08:02:44;;;;;;;;;2.33;1.00;;;;;23.59;39.89;100553.28;5038754;28;46512;-72
2022/04/06 08:05:09;;;;;;;;;2.33;2.00;;;;;23.60;40.01;100544.13;5048541;28;45657;-72
2022/04/06 08:07:39;;;;;;;;;1.00;1.00;;;;;23.59;39.91;100535.16;5046151;28;45487;-72
2022/04/06 08:10:08;;;;;;;;;1.67;1.67;;;;;23.62;40.11;100548.34;5050956;28;45626;-72
2022/04/06 08:12:35;;;;;;;;;1.00;1.00;;;;;23.62;39.99;100536.69;5052010;28;45434;-71
2022/04/06 08:15:00;;;;;;;;;3.33;2.00;;;;;23.71;40.01;100546.47;5047377;28;45480;-73
2022/04/06 08:17:26;;;;;;;;;1.00;1.00;;;;;23.76;40.00;100535.09;5052390;28;45370;-73
2022/04/06 08:19:51;;;;;;;;;1.00;1.00;;;;;23.78;40.02;100531.19;5050024;28;45471;-74
2022/04/06 08:22:17;;;;;;;;;0.00;0.00;;;;;23.81;39.97;100528.16;5047540;28;54066;-74
2022/04/06 08:24:42;;;;;;;;;1.00;1.00;;;;;23.80;40.17;100533.72;5051235;28;46022;-74
2022/04/06 08:27:07;;;;;;;;;3.00;2.00;;;;;23.85;40.10;100522.34;5050041;28;50927;-73
2022/04/06 08:29:33;;;;;;;;;1.33;1.33;;;;;23.85;40.19;100525.91;5039187;28;45512;-73
2022/04/06 08:31:58;;;;;;;;;2.00;2.00;;;;;23.85;40.20;100534.06;5046420;28;45996;-72
2022/04/06 08:34:24;;;;;;;;;1.00;1.00;;;;;23.90;40.00;100528.09;5048151;28;45433;-72
2022/04/06 08:36:49;;;;;;;;;0.33;0.33;;;;;23.92;40.30;100529.59;5048795;28;45517;-72
2022/04/06 08:39:14;;;;;;;;;3.33;1.33;;;;;23.98;40.05;100528.06;5050928;28;48241;-72
2022/04/06 08:41:40;;;;;;;;;2.00;0.00;;;;;24.01;40.00;100527.72;5052066;28;59900;-72
2022/04/06 08:44:06;;;;;;;;;1.00;1.00;;;;;24.02;40.18;100521.25;5042423;28;45571;-72
2022/04/06 08:46:39;;;;;;;;;2.33;1.00;;;;;24.06;40.19;100529.88;5047958;28;45552;-72
2022/04/06 08:49:05;;;;;;;;;1.00;1.00;;;;;24.11;39.80;100529.41;5050820;28;45535;-72
2022/04/06 08:51:33;;;;;;;;;1.00;1.00;;;;;24.13;39.94;100524.63;5044875;28;46622;-72
2022/04/06 08:53:59;;;;;;;;;1.00;1.00;;;;;24.14;40.03;100521.75;5036360;28;45349;-72
2022/04/06 08:56:25;;;;;;;;;0.33;0.33;;;;;24.15;39.96;100512.56;5048698;28;45577;-72
2022/04/06 08:58:50;;;;;;;;;3.00;1.00;;;;;24.18;39.90;100516.81;5044480;28;45708;-72
2022/04/06 09:01:16;;;;;;;;;3.00;1.67;;;;;24.18;40.19;100516.81;5046576;28;47389;-73
2022/04/06 09:03:42;;;;;;;;;0.67;0.00;;;;;24.18;40.10;100519.50;5048085;28;49749;-73
2022/04/06 09:06:11;;;;;;;;;1.00;1.00;;;;;24.18;40.12;100514.94;5049793;28;45395;-73
2022/04/06 09:08:45;;;;;;;;;1.00;1.00;;;;;24.16;39.99;100516.16;5047240;28;45546;-74
2022/04/06 09:11:17;;;;;;;;;2.00;2.00;;;;;24.18;40.04;100525.78;5050439;28;46383;-73
2022/04/06 09:13:46;;;;;;;;;1.00;1.00;;;;;24.19;39.96;100518.47;5049095;28;45574;-72
2022/04/06 09:16:13;;;;;;;;;1.67;1.67;;;;;24.19;39.84;100515.78;5048524;28;45533;-74
2022/04/06 09:18:43;;;;;;;;;1.67;1.67;;;;;24.21;39.69;100516.44;5050167;28;45461;-74
2022/04/06 09:21:10;;;;;;;;;3.67;2.33;;;;;24.19;39.60;100518.47;5050527;28;45586;-73
2022/04/06 09:23:36;;;;;;;;;2.00;0.00;;;;;24.15;39.78;100514.47;5047813;28;45617;-71
2022/04/06 09:26:11;;;;;;;;;8.33;3.00;;;;;24.12;38.73;100512.97;5046493;28;45754;-72
2022/04/06 09:28:38;;;;;;;;;3.67;2.33;;;;;24.07;38.75;100516.16;5047395;28;45462;-72
2022/04/06 09:31:04;;;;;;;;;9.00;6.33;;;;;24.04;38.30;100512.97;5044919;28;46335;-73
2022/04/06 09:33:29;;;;;;;;;7.00;4.33;;;;;24.00;38.17;100511.63;5050792;28;45447;-73
2022/04/06 09:35:57;;;;;;;;;4.33;2.00;;;;;23.95;38.37;100504.88;5054647;28;45386;-72
2022/04/06 09:38:26;;;;;;;;;3.00;3.00;;;;;23.95;38.15;100509.47;5049795;28;45457;-72
2022/04/06 09:41:06;;;;;;;;;4.67;3.00;;;;;23.91;38.18;100508.13;5049436;28;46222;-73
2022/04/06 09:43:35;;;;;;;;;3.00;3.00;;;;;23.89;38.20;100508.28;5048726;28;45518;-73
2022/04/06 09:49:08;;;;;;;;;1.33;1.33;;;;;23.85;37.97;100506.09;5049192;28;45493;-74
2022/04/06 09:51:34;;;;;;;;;6.00;3.00;;;;;23.82;38.31;100496.44;5050308;28;45649;-74
2022/04/06 09:54:03;;;;;;;;;0.33;0.33;;;;;23.81;37.97;100495.63;5051768;28;45492;-74
2022/04/06 09:56:30;;;;;;;;;2.33;2.33;;;;;23.79;37.95;100494.94;5055077;28;45355;-74
2022/04/06 09:58:57;;;;;;;;;1.67;1.33;;;;;23.79;37.80;100503.06;5051922;28;45581;-74
2022/04/06 10:01:24;;;;;;;;;2.00;2.00;;;;;23.77;37.79;100501.56;5051056;28;45549;-73
2022/04/06 10:03:54;;;;;;;;;3.00;3.00;;;;;23.77;38.01;100496.13;5051150;28;45716;-74
2022/04/06 10:06:20;;;;;;;;;1.33;1.33;;;;;23.75;37.71;100485.47;5049852;28;45457;-75
2022/04/06 10:08:46;;;;;;;;;3.00;3.00;;;;;23.74;37.73;100485.66;5049533;28;45559;-75
2022/04/06 10:11:12;;;;;;;;;1.67;1.67;;;;;23.74;37.78;100485.66;5049274;28;46373;-75
2022/04/06 10:13:39;;;;;;;;;1.67;1.67;;;;;23.69;37.67;100473.50;5047645;28;45949;-74
2022/04/06 10:16:10;;;;;;;;;4.33;2.00;;;;;23.66;38.06;100483.81;5048138;28;45459;-74
2022/04/06 10:18:36;;;;;;;;;3.00;2.00;;;;;23.62;37.90;100469.78;5048488;28;45696;-75
2022/04/06 10:21:28;;;;;;;;;3.00;3.00;;;;;23.64;37.60;100478.59;5050364;28;46155;-76
2022/04/06 10:24:31;;;;;;;;;3.00;2.00;;;;;23.62;37.56;100477.09;5046243;28;45363;-74
2022/04/06 10:27:27;;;;;;;;;3.00;3.00;;;;;23.63;37.72;100476.88;5050884;28;45570;-72
2022/04/06 10:30:15;;;;;;;;;5.67;3.67;;;;;23.63;37.65;100478.75;5049313;28;45473;-74
2022/04/06 10:32:45;;;;;;;;;3.00;1.33;;;;;23.61;37.73;100468.09;5047496;28;45503;-74
2022/04/06 10:35:24;;;;;;;;;3.33;3.00;;;;;23.60;37.88;100465.56;5048341;28;47058;-74
2022/04/06 10:38:10;;;;;;;;;4.00;3.00;;;;;23.57;37.80;100461.34;5041821;28;45387;-72
2022/04/06 10:40:47;;;;;;;;;2.00;2.00;;;;;23.57;37.53;100466.75;5046106;28;45624;-73
2022/04/06 10:43:39;;;;;;;;;4.67;2.00;;;;;23.58;37.68;100464.91;5046852;28;45513;-73
2022/04/06 10:46:15;;;;;;;;;2.00;2.00;;;;;23.55;37.66;100449.84;5043970;28;45488;-73
2022/04/06 10:48:57;;;;;;;;;3.67;2.00;;;;;23.50;37.79;100450.34;5038795;28;45523;-72
2022/04/06 10:51:27;;;;;;;;;3.33;1.33;;;;;23.45;37.36;100451.94;5047237;28;45665;-72
2022/04/06 10:53:52;;;;;;;;;3.33;0.00;;;;;23.43;37.70;100439.38;5050691;28;46022;-73
2022/04/06 10:56:18;;;;;;;;;3.00;2.00;;;;;23.42;37.44;100440.41;5048517;28;58786;-73
2022/04/06 10:58:55;;;;;;;;;3.00;3.00;;;;;23.41;37.42;100437.88;5049604;28;45416;-73
2022/04/06 11:01:29;;;;;;;;;1.00;1.00;;;;;23.39;37.67;100435.34;5042646;28;45884;-72
2022/04/06 11:03:55;;;;;;;;;2.00;2.00;;;;;23.41;37.85;100430.59;5050754;28;47071;-72
2022/04/06 11:06:41;;;;;;;;;1.67;1.67;;;;;23.42;37.86;100420.63;5043702;28;45495;-73
2022/04/06 11:12:12;;;;;;;;;2.67;2.00;;;;;23.43;37.82;100417.72;5044327;28;45461;-73
2022/04/06 11:14:38;;;;;;;;;1.67;1.67;;;;;23.43;37.41;100409.59;5066241;28;46825;-73
2022/04/06 11:17:30;;;;;;;;;5.33;2.33;;;;;23.41;37.37;100408.06;5041955;28;46209;-73
2022/04/06 11:19:56;;;;;;;;;2.00;1.00;;;;;23.39;37.67;100399.28;5043572;28;45564;-73
2022/04/06 11:22:22;;;;;;;;;3.00;2.00;;;;;23.38;37.65;100398.44;5047167;28;45853;-73
2022/04/06 11:24:48;;;;;;;;;3.67;2.00;;;;;23.39;38.15;100397.44;5048217;28;45835;-73
2022/04/06 11:27:32;;;;;;;;;2.00;2.00;;;;;23.41;37.73;100402.66;5033471;28;45756;-74
2022/04/06 11:30:04;;;;;;;;;1.00;1.00;;;;;23.38;37.69;100390.31;5048478;28;45417;-74
2022/04/06 11:32:30;;;;;;;;;2.67;2.33;;;;;23.39;37.66;100389.31;5048295;28;45417;-73
2022/04/06 11:35:04;;;;;;;;;1.00;1.00;;;;;23.38;37.90;100386.78;5049031;28;45814;-73
2022/04/06 11:37:30;;;;;;;;;3.00;2.00;;;;;23.37;37.52;100376.94;5040782;28;45522;-73
2022/04/06 11:39:59;;;;;;;;;1.67;1.67;;;;;23.36;37.72;100381.53;5041504;28;45570;-73
2022/04/06 11:42:25;;;;;;;;;2.00;2.00;;;;;23.35;37.60;100377.16;5045620;28;45711;-73
2022/04/06 11:44:52;;;;;;;;;4.00;2.33;;;;;23.32;37.86;100374.75;5050355;28;45992;-73
2022/04/06 11:47:32;;;;;;;;;2.67;1.00;;;;;23.33;37.44;100362.91;5043954;28;51599;-73
2022/04/06 11:49:58;;;;;;;;;3.33;2.00;;;;;23.28;37.67;100362.56;5043293;28;45384;-73
2022/04/06 11:52:24;;;;;;;;;1.67;1.67;;;;;23.31;37.66;100354.13;5051109;28;46628;-73
2022/04/06 11:54:59;;;;;;;;;3.00;2.00;;;;;23.32;37.78;100357.66;5047266;28;45368;-73
2022/04/06 11:57:35;;;;;;;;;1.67;1.67;;;;;23.32;37.50;100344.09;5051522;28;45604;-73
2022/04/06 12:00:01;;;;;;;;;3.33;2.00;;;;;23.33;37.54;100343.16;5037389;28;45704;-72
2022/04/06 12:02:26;;;;;;;;;2.33;2.00;;;;;23.32;37.80;100344.97;5050458;28;45603;-73
2022/04/06 12:05:05;;;;;;;;;5.67;2.00;;;;;23.33;37.18;100345.84;5047284;28;57815;-72
2022/04/06 12:07:30;;;;;;;;;0.00;0.00;;;;;23.34;37.42;100340.22;5044348;28;45768;-73
2022/04/06 12:09:56;;;;;;;;;2.67;1.00;;;;;23.33;37.15;100333.13;5037287;28;45626;-72
2022/04/06 12:12:23;;;;;;;;;3.67;3.33;;;;;23.36;37.26;100340.91;5038532;28;45658;-72
2022/04/06 12:14:52;;;;;;;;;2.33;2.00;;;;;23.37;37.20;100329.06;5043010;28;47301;-73
2022/04/06 12:17:19;;;;;;;;;6.33;3.33;;;;;23.38;37.26;100328.03;5041581;28;45709;-73
2022/04/06 12:19:44;;;;;;;;;3.00;3.00;;;;;23.41;37.21;100324.97;5039490;28;45493;-74
2022/04/06 12:22:12;;;;;;;;;1.67;1.67;;;;;23.41;36.89;100322.28;5039119;28;47056;-72
2022/04/06 12:24:40;;;;;;;;;1.67;1.67;;;;;23.40;37.17;100326.00;5037579;28;47104;-72
2022/04/06 12:27:06;;;;;;;;;4.00;2.33;;;;;23.42;37.43;100317.72;5044229;28;45340;-72
2022/04/06 12:29:32;;;;;;;;;2.00;2.00;;;;;23.46;37.20;100316.31;5041049;28;45529;-72
2022/04/06 12:31:58;;;;;;;;;3.00;1.00;;;;;23.47;37.06;100309.03;5042132;28;45775;-71
2022/04/06 12:34:26;;;;;;;;;3.00;2.00;;;;;23.53;37.38;100311.00;5045525;28;45959;-72
2022/04/06 12:36:51;;;;;;;;;2.00;2.00;;;;;23.50;36.99;100312.22;5042669;28;45648;-72
2022/04/06 12:39:18;;;;;;;;;2.00;2.00;;;;;23.51;36.89;100300.34;5040555;28;46125;-72
2022/04/06 12:42:02;;;;;;;;;4.67;3.00;;;;;23.54;37.19;100304.59;5041044;28;45625;-73
2022/04/06 12:44:29;;;;;;;;;5.00;1.33;;;;;23.53;37.40;100301.03;5047242;28;46219;-74
2022/04/06 12:46:55;;;;;;;;;5.00;4.00;;;;;23.57;36.78;100303.41;5041244;28;45571;-75
2022/04/06 12:49:23;;;;;;;;;4.00;3.67;;;;;23.57;37.09;100298.81;5045255;28;45496;-71
2022/04/06 12:52:19;;;;;;;;;2.00;1.00;;;;;23.55;37.47;100296.28;5044299;28;46379;-73
2022/04/06 12:54:47;;;;;;;;;3.00;3.00;;;;;23.51;37.53;100300.34;5044681;28;46757;-72
2022/04/06 12:57:16;;;;;;;;;4.00;2.33;;;;;23.50;37.52;100300.56;5047648;28;45428;-73
2022/04/06 13:00:21;;;;;;;;;3.00;3.00;;;;;23.49;37.26;100299.72;5043310;28;45516;-72
2022/04/06 13:02:47;;;;;;;;;2.00;2.00;;;;;23.48;37.71;100289.91;5042159;28;45612;-72
2022/04/06 13:05:14;;;;;;;;;2.00;2.00;;;;;23.46;37.76;100285.69;5043885;28;45775;-72
2022/04/06 13:07:42;;;;;;;;;3.00;3.00;;;;;23.45;37.93;100276.72;5041402;28;45482;-72
2022/04/06 13:10:31;;;;;;;;;3.00;2.00;;;;;23.45;37.50;100281.31;5040417;28;45471;-72
2022/04/06 13:12:57;;;;;;;;;1.33;1.33;;;;;23.46;37.44;100264.03;5041173;28;45520;-72
2022/04/06 13:15:23;;;;;;;;;4.00;2.00;;;;;23.46;37.72;100266.72;5041808;28;46322;-72
2022/04/06 13:17:49;;;;;;;;;1.00;1.00;;;;;23.46;37.52;100267.56;5044516;28;45542;-72
2022/04/06 13:20:17;;;;;;;;;3.33;2.00;;;;;23.43;37.80;100262.50;5046392;28;45525;-72
2022/04/06 13:22:42;;;;;;;;;3.00;1.00;;;;;23.46;38.15;100250.47;5043751;28;45818;-72
2022/04/06 13:25:10;;;;;;;;;1.00;1.00;;;;;23.43;38.16;100249.78;5036982;28;45844;-72
2022/04/06 13:27:35;;;;;;;;;1.67;1.67;;;;;23.45;37.78;100251.50;5041682;28;45659;-72
2022/04/06 13:30:01;;;;;;;;;1.67;1.67;;;;;23.46;37.75;100253.19;5039636;28;47308;-74
2022/04/06 13:32:27;;;;;;;;;8.00;5.00;;;;;23.49;37.46;100250.09;5054158;28;45524;-72
2022/04/06 13:34:53;;;;;;;;;3.67;3.67;;;;;23.49;37.27;100239.25;5043397;28;46077;-73
2022/04/06 13:37:19;;;;;;;;;3.67;3.33;;;;;23.53;37.88;100244.16;5045246;28;45540;-73
2022/04/06 13:39:45;;;;;;;;;2.67;2.00;;;;;23.58;37.30;100237.34;5042792;28;49264;-73
2022/04/06 13:42:11;;;;;;;;;3.33;2.33;;;;;23.57;37.16;100228.38;5051121;28;45792;-72
2022/04/06 13:44:36;;;;;;;;;3.00;3.00;;;;;23.57;37.47;100227.56;5051002;28;46498;-73
2022/04/06 13:47:05;;;;;;;;;4.00;2.00;;;;;23.58;37.60;100223.81;5049277;28;45388;-72
2022/04/06 13:49:31;;;;;;;;;1.33;1.33;;;;;23.56;37.47;100215.88;5045881;28;45501;-73
2022/04/06 13:51:56;;;;;;;;;5.67;2.00;;;;;23.55;37.37;100209.59;5047399;28;45478;-72
2022/04/06 13:54:24;;;;;;;;;7.33;5.00;;;;;23.55;37.24;100203.34;5047040;28;45909;-71
2022/04/06 13:56:49;;;;;;;;;6.67;3.67;;;;;23.56;37.03;100196.91;5045265;28;45448;-72
2022/04/06 13:59:15;;;;;;;;;3.00;2.33;;;;;23.51;37.56;100183.88;5048296;28;46390;-72
2022/04/06 14:01:41;;;;;;;;;2.00;1.00;;;;;23.55;37.20;100185.22;5046388;28;45530;-72
2022/04/06 14:04:06;;;;;;;;;2.00;2.00;;;;;23.54;37.54;100183.53;5044408;28;45513;-73
2022/04/06 14:06:32;;;;;;;;;5.33;4.00;;;;;23.55;37.24;100176.25;5041642;28;45947;-73
2022/04/06 14:08:58;;;;;;;;;2.00;1.00;;;;;23.53;37.51;100178.28;5039673;28;46597;-73
2022/04/06 14:11:24;;;;;;;;;3.00;1.00;;;;;23.53;37.23;100173.72;5046472;28;46552;-73
2022/04/06 14:13:50;;;;;;;;;5.33;4.00;;;;;23.54;37.28;100170.00;5047418;28;46157;-72
2022/04/06 14:16:17;;;;;;;;;5.00;2.00;;;;;23.56;37.65;100177.94;5048327;28;45678;-73
2022/04/06 14:18:42;;;;;;;;;3.00;1.00;;;;;23.57;36.92;100173.38;5046736;28;46297;-72
2022/04/06 14:21:08;;;;;;;;;3.67;2.00;;;;;23.58;37.41;100175.06;5048365;28;45481;-72
2022/04/06 14:23:37;;;;;;;;;4.00;2.67;;;;;23.54;37.50;100172.69;5041741;28;46291;-72
2022/04/06 14:26:03;;;;;;;;;2.00;2.00;;;;;23.56;37.23;100167.09;5048825;28;45344;-73
2022/04/06 14:28:28;;;;;;;;;3.00;1.33;;;;;23.55;36.94;100160.00;5044185;28;45388;-72
2022/04/06 14:30:54;;;;;;;;;1.00;1.00;;;;;23.55;37.35;100158.13;5049042;28;45498;-72
2022/04/06 14:33:20;;;;;;;;;4.00;2.67;;;;;23.55;37.10;100149.19;5047733;28;45588;-72
2022/04/06 14:35:46;;;;;;;;;4.00;2.00;;;;;23.58;37.16;100139.84;5048936;28;45526;-72
2022/04/06 14:38:14;;;;;;;;;1.33;1.33;;;;;23.60;37.14;100140.50;5042640;28;45647;-73
2022/04/06 14:40:39;;;;;;;;;2.00;2.00;;;;;23.58;37.02;100139.84;5047423;28;50785;-72
2022/04/06 14:43:05;;;;;;;;;2.33;2.33;;;;;23.64;37.11;100137.25;5048140;28;46252;-71
2022/04/06 14:45:30;;;;;;;;;2.33;1.00;;;;;23.66;36.79;100134.31;5041109;28;45791;-71
2022/04/06 14:47:56;;;;;;;;;1.00;1.00;;;;;23.68;36.76;100126.88;5049335;28;45545;-74
2022/04/06 14:50:22;;;;;;;;;2.33;2.00;;;;;23.69;36.99;100123.13;5050923;28;45492;-73
2022/04/06 14:52:49;;;;;;;;;1.00;1.00;;;;;23.70;37.17;100127.50;5047709;28;46286;-72
2022/04/06 14:55:16;;;;;;;;;3.67;2.00;;;;;23.68;37.38;100125.03;5043838;28;47357;-72
2022/04/06 14:57:42;;;;;;;;;5.00;3.00;;;;;23.71;37.38;100122.94;5044324;28;45544;-72
2022/04/06 15:00:09;;;;;;;;;0.33;0.33;;;;;23.70;37.25;100124.81;5041410;28;45520;-72
2022/04/06 15:02:34;;;;;;;;;5.67;2.67;;;;;23.79;37.38;100120.16;5039365;28;45395;-72
2022/04/06 15:05:00;;;;;;;;;6.00;2.00;;;;;23.81;37.48;100118.09;5041731;27;46213;-72
2022/04/06 15:07:26;;;;;;;;;3.00;2.67;;;;;23.81;37.62;100115.38;5043957;28;46298;-72
2022/04/06 15:09:52;;;;;;;;;2.67;2.67;;;;;23.81;37.71;100102.69;5038282;28;45265;-72
2022/04/06 15:12:19;;;;;;;;;1.33;1.33;;;;;23.87;37.51;100100.25;5039851;28;46048;-72
2022/04/06 15:14:44;;;;;;;;;5.67;2.67;;;;;23.91;37.64;100102.41;5043054;28;45445;-72
2022/04/06 15:17:10;;;;;;;;;1.00;1.00;;;;;23.94;37.40;100096.63;5039414;28;45695;-72
2022/04/06 15:19:35;;;;;;;;;1.00;1.00;;;;;23.94;37.33;100076.78;5042873;28;45625;-72
2022/04/06 15:22:02;;;;;;;;;2.33;2.00;;;;;23.99;37.31;100060.81;5041740;28;45584;-73
2022/04/06 15:24:28;;;;;;;;;1.00;1.00;;;;;24.03;38.14;100072.97;5040159;28;46114;-74
2022/04/06 15:26:53;;;;;;;;;2.33;2.00;;;;;24.03;37.83;100064.81;5037114;28;45622;-74
2022/04/06 15:29:19;;;;;;;;;1.67;1.67;;;;;24.02;37.88;100059.59;5041895;28;45584;-74
2022/04/06 15:31:44;;;;;;;;;3.00;3.00;;;;;24.09;37.78;100060.56;5037504;28;46111;-74
2022/04/06 15:37:18;;;;;;;;;1.00;1.00;;;;;24.11;38.05;100068.50;5040485;28;45442;-74
2022/04/06 15:39:39;;;;;;;;;2.00;0.00;;;;;24.15;38.19;100069.81;5048567;28;45559;-73
2022/04/06 15:42:04;;;;;;;;;2.00;1.67;;;;;24.14;37.91;100060.84;5045300;28;47007;-74
2022/04/06 15:44:29;;;;;;;;;2.67;1.00;;;;;24.16;38.00;100056.06;5063584;28;46163;-74
2022/04/06 15:46:55;;;;;;;;;4.67;2.00;;;;;24.15;37.36;100059.78;5043449;28;45498;-75
2022/04/06 15:49:20;;;;;;;;;2.67;2.00;;;;;24.11;37.51;100058.50;5041076;28;45550;-74
2022/04/06 15:51:45;;;;;;;;;5.33;2.33;;;;;24.14;37.77;100068.13;5037543;28;58481;-74
2022/04/06 15:54:11;;;;;;;;;4.33;2.00;;;;;24.14;37.71;100070.81;5041467;28;45451;-75